Eurocargo Venezia — IBKS — position and weather

sailwx.info

Track history (hours):
 
Tides and Currents Weather Stations Pressure Air Temp Water Temp Dewpoint Dewpoint Depression Visibility Wind Speed Wind Dir Waves Ship Positions

Eurocargo Venezia

Last reported at 2017-Jan-24 16:31 UTC. Time now 2017-Jan-25 01:30 UTC.
Position N 39°03' E 015°11'.

Length 200 m; draft 7.2 m.

Type: Ship (hazmat cat D). MMSI: 247297200.

Date/timePositionNaut miles runAvg speedWind from/ knotsBaromVisibWave heightAir tempDewpointWater temp
2017-Jan-24 16:31N 39°03' E 015°11'2020.6
2017-Jan-24 15:33N 38°46' E 015°25'2020.7
2017-Jan-24 14:33N 38°28' E 015°37'1716.6
2017-Jan-24 13:33N 38°11' E 015°37'1817.7
2017-Jan-24 12:33N 37°55' E 015°28'1918.9
2017-Jan-24 11:33N 37°38' E 015°18'13 1.4
2017-Jan-24 02:21N 37°29' E 015°06'6913.2
2017-Jan-23 21:05N 36°21' E 014°53'1019.6
2017-Jan-23 20:33N 36°12' E 014°46'1919.3
2017-Jan-23 19:33N 35°56' E 014°33'3 1.7
2017-Jan-23 17:31N 35°53' E 014°31'0 0.0
2017-Jan-23 16:31N 35°53' E 014°31'0 0.0
2017-Jan-23 15:31N 35°53' E 014°31'0 0.0
2017-Jan-23 14:31N 35°53' E 014°31'0 0.0
2017-Jan-23 13:28N 35°53' E 014°31'0 0.0
2017-Jan-23 12:19N 35°53' E 014°31'0 0.0
2017-Jan-23 11:07N 35°53' E 014°31'2 2.7
2017-Jan-23 10:33N 35°54' E 014°32'1817.2
2017-Jan-23 09:32N 36°08' E 014°45'8116.2
2017-Jan-23 04:32N 37°27' E 015°09'2 0.3
2017-Jan-22 23:25N 37°28' E 015°07'1214.4
2017-Jan-22 22:33N 37°37' E 015°18'1818.3
2017-Jan-22 21:33N 37°54' E 015°26'1717.2
2017-Jan-22 20:33N 38°10' E 015°36'1515.4
2017-Jan-22 19:34N 38°25' E 015°36'1919.0
2017-Jan-22 18:33N 38°42' E 015°26'34518.2
2017-Jan-21 23:33N 43°01' E 010°23'1918.7
2017-Jan-21 22:34N 43°18' E 010°13'1717.1
2017-Jan-21 21:33N 43°31' E 009°58'1818.4
2017-Jan-21 20:34N 43°44' E 009°40'1918.7
2017-Jan-21 19:34N 43°58' E 009°23'1918.8
2017-Jan-21 18:34N 44°12' E 009°06'1515.0
2017-Jan-21 17:33N 44°24' E 008°53'0 0.2
2017-Jan-21 16:32N 44°24' E 008°53'0 0.0
2017-Jan-21 15:32N 44°24' E 008°53'0 0.0
2017-Jan-21 14:32N 44°24' E 008°53'0 0.0
2017-Jan-21 13:32N 44°24' E 008°53'0 0.0
2017-Jan-21 12:32N 44°24' E 008°53'0 0.0
2017-Jan-21 11:32N 44°24' E 008°53'0 0.0
2017-Jan-21 10:32N 44°24' E 008°53'0 0.0
2017-Jan-21 09:31N 44°24' E 008°53'0 0.0
2017-Jan-21 08:31N 44°24' E 008°53'0 0.0
2017-Jan-21 07:32N 44°24' E 008°53'0 0.0
2017-Jan-21 06:34N 44°24' E 008°53'4 4.3
2017-Jan-21 05:33N 44°22' E 008°58'1212.1
2017-Jan-21 04:33N 44°12' E 009°09'1716.7
2017-Jan-21 03:33N 43°59' E 009°23'2019.7
2017-Jan-21 02:33N 43°44' E 009°41'1919.4
2017-Jan-21 01:33N 43°30' E 009°58'1919.5
2017-Jan-21 00:33N 43°14' E 010°15'33519.5
2017-Jan-20 07:23N 39°04' E 015°10'1619.5
2017-Jan-20 06:33N 38°51' E 015°22'1919.6
2017-Jan-20 05:33N 38°33' E 015°34'1818.4
2017-Jan-20 04:33N 38°16' E 015°42'1817.8
2017-Jan-20 03:33N 37°60' E 015°32'2019.9
2017-Jan-20 02:33N 37°42' E 015°21'91 7.0
2017-Jan-19 13:32N 36°14' E 014°50'2019.9
2017-Jan-19 12:33N 35°58' E 014°36'7 2.9
2017-Jan-19 10:16N 35°53' E 014°31'0 0.0
2017-Jan-19 09:31N 35°53' E 014°31'0 0.0
2017-Jan-19 08:31N 35°53' E 014°31'0 0.0
2017-Jan-19 07:28N 35°53' E 014°31'0 0.0
2017-Jan-19 06:31N 35°53' E 014°31'0 0.0
2017-Jan-19 05:31N 35°53' E 014°31'0 0.0
2017-Jan-19 04:25N 35°53' E 014°31'3 3.2
2017-Jan-19 03:33N 35°55' E 014°33'2019.9
2017-Jan-19 02:33N 36°11' E 014°47'87 6.6
2017-Jan-18 13:20N 37°34' E 015°16'1518.8
2017-Jan-18 12:32N 37°48' E 015°24'1919.3
2017-Jan-18 11:33N 38°06' E 015°33'1414.5
2017-Jan-18 10:33N 38°19' E 015°40'1818.3
2017-Jan-18 09:33N 38°37' E 015°33'1918.9
2017-Jan-18 08:32N 38°52' E 015°19'33618.7
2017-Jan-17 14:33N 43°03' E 010°23'1919.5
2017-Jan-17 13:33N 43°21' E 010°15'1313.1
2017-Jan-17 12:33N 43°34' E 010°18'1 1.0
2017-Jan-17 11:30N 43°35' E 010°19'0 0.0
2017-Jan-17 10:29N 43°35' E 010°19'0 0.0
2017-Jan-17 09:33N 43°35' E 010°19'0 0.0
2017-Jan-17 08:33N 43°35' E 010°19'0 0.0
2017-Jan-17 07:33N 43°35' E 010°19'0 0.0
2017-Jan-17 06:32N 43°35' E 010°19'0 0.0
2017-Jan-17 05:32N 43°35' E 010°19'4 3.7
2017-Jan-17 04:33N 43°32' E 010°16'1110.8
2017-Jan-17 03:34N 43°30' E 010°01'1615.7
2017-Jan-17 02:34N 43°40' E 009°45'1616.4
2017-Jan-17 01:33N 43°53' E 009°30'1616.2
2017-Jan-17 00:33N 44°05' E 009°15'1615.9
2017-Jan-16 23:34N 44°17' E 009°01'9 8.8
2017-Jan-16 22:32N 44°24' E 008°53'0 0.0
2017-Jan-16 21:31N 44°24' E 008°53'0 0.0
2017-Jan-16 20:31N 44°24' E 008°53'0 0.0
2017-Jan-16 19:32N 44°24' E 008°53'0 0.0
2017-Jan-16 18:31N 44°24' E 008°53'0 0.0
2017-Jan-16 17:32N 44°24' E 008°53'0 0.0
2017-Jan-16 16:31N 44°24' E 008°53'0 0.0
2017-Jan-16 15:31N 44°24' E 008°53'0 0.0
2017-Jan-16 14:22N 44°24' E 008°53'0 0.0
2017-Jan-16 13:25N 44°24' E 008°53'0 0.0
2017-Jan-16 12:31N 44°24' E 008°53'0 0.0
2017-Jan-16 11:31N 44°24' E 008°53'0 0.0
2017-Jan-16 10:31N 44°24' E 008°53'0 0.0
2017-Jan-16 09:31N 44°24' E 008°53'0 0.0
2017-Jan-16 08:31N 44°24' E 008°53'0 0.0
2017-Jan-16 07:31N 44°24' E 008°53'2 2.2
2017-Jan-16 06:33N 44°24' E 008°56'9 9.3
2017-Jan-16 05:33N 44°16' E 009°04'1010.0
2017-Jan-16 04:33N 44°08' E 009°13'1110.6
2017-Jan-16 03:33N 44°00' E 009°22'1817.7
2017-Jan-16 02:33N 43°47' E 009°38'1818.5
2017-Jan-16 01:33N 43°33' E 009°55'1817.9
2017-Jan-16 00:34N 43°19' E 010°10'3917.9
2017-Jan-15 22:22N 42°45' E 010°37'31018.4
2017-Jan-15 05:33N 38°58' E 015°17'1818.6
2017-Jan-15 04:33N 38°42' E 015°28'1918.9
2017-Jan-15 03:33N 38°25' E 015°39'1615.6
2017-Jan-15 02:33N 38°10' E 015°37'1818.4
2017-Jan-15 01:33N 37°53' E 015°27'  
Track history (hours):
 
Tides and Currents Weather Stations Pressure Air Temp Water Temp Dewpoint Dewpoint Depression Visibility Wind Speed Wind Dir Waves Ship Positions

Eurocargo Venezia

Last reported at 2017-Jan-24 16:31 UTC. Time now 2017-Jan-25 01:30 UTC.
Position N 39°03' E 015°11'.

Length 200 m; draft 7.2 m.

Type: Ship (hazmat cat D). MMSI: 247297200.

Date/timePositionNaut miles runAvg speedWind from/ knotsBaromVisibWave heightAir tempDewpointWater temp
2017-Jan-24 16:31N 39°03' E 015°11'2020.6
2017-Jan-24 15:33N 38°46' E 015°25'2020.7
2017-Jan-24 14:33N 38°28' E 015°37'1716.6
2017-Jan-24 13:33N 38°11' E 015°37'1817.7
2017-Jan-24 12:33N 37°55' E 015°28'1918.9
2017-Jan-24 11:33N 37°38' E 015°18'13 1.4
2017-Jan-24 02:21N 37°29' E 015°06'6913.2
2017-Jan-23 21:05N 36°21' E 014°53'1019.6
2017-Jan-23 20:33N 36°12' E 014°46'1919.3
2017-Jan-23 19:33N 35°56' E 014°33'3 1.7
2017-Jan-23 17:31N 35°53' E 014°31'0 0.0
2017-Jan-23 16:31N 35°53' E 014°31'0 0.0
2017-Jan-23 15:31N 35°53' E 014°31'0 0.0
2017-Jan-23 14:31N 35°53' E 014°31'0 0.0
2017-Jan-23 13:28N 35°53' E 014°31'0 0.0
2017-Jan-23 12:19N 35°53' E 014°31'0 0.0
2017-Jan-23 11:07N 35°53' E 014°31'2 2.7
2017-Jan-23 10:33N 35°54' E 014°32'1817.2
2017-Jan-23 09:32N 36°08' E 014°45'8116.2
2017-Jan-23 04:32N 37°27' E 015°09'2 0.3
2017-Jan-22 23:25N 37°28' E 015°07'1214.4
2017-Jan-22 22:33N 37°37' E 015°18'1818.3
2017-Jan-22 21:33N 37°54' E 015°26'1717.2
2017-Jan-22 20:33N 38°10' E 015°36'1515.4
2017-Jan-22 19:34N 38°25' E 015°36'1919.0
2017-Jan-22 18:33N 38°42' E 015°26'34518.2
2017-Jan-21 23:33N 43°01' E 010°23'1918.7
2017-Jan-21 22:34N 43°18' E 010°13'1717.1
2017-Jan-21 21:33N 43°31' E 009°58'1818.4
2017-Jan-21 20:34N 43°44' E 009°40'1918.7
2017-Jan-21 19:34N 43°58' E 009°23'1918.8
2017-Jan-21 18:34N 44°12' E 009°06'1515.0
2017-Jan-21 17:33N 44°24' E 008°53'0 0.2
2017-Jan-21 16:32N 44°24' E 008°53'0 0.0
2017-Jan-21 15:32N 44°24' E 008°53'0 0.0
2017-Jan-21 14:32N 44°24' E 008°53'0 0.0
2017-Jan-21 13:32N 44°24' E 008°53'0 0.0
2017-Jan-21 12:32N 44°24' E 008°53'0 0.0
2017-Jan-21 11:32N 44°24' E 008°53'0 0.0
2017-Jan-21 10:32N 44°24' E 008°53'0 0.0
2017-Jan-21 09:31N 44°24' E 008°53'0 0.0
2017-Jan-21 08:31N 44°24' E 008°53'0 0.0
2017-Jan-21 07:32N 44°24' E 008°53'0 0.0
2017-Jan-21 06:34N 44°24' E 008°53'4 4.3
2017-Jan-21 05:33N 44°22' E 008°58'1212.1
2017-Jan-21 04:33N 44°12' E 009°09'1716.7
2017-Jan-21 03:33N 43°59' E 009°23'2019.7
2017-Jan-21 02:33N 43°44' E 009°41'1919.4
2017-Jan-21 01:33N 43°30' E 009°58'1919.5
2017-Jan-21 00:33N 43°14' E 010°15'33519.5
2017-Jan-20 07:23N 39°04' E 015°10'1619.5
2017-Jan-20 06:33N 38°51' E 015°22'1919.6
2017-Jan-20 05:33N 38°33' E 015°34'1818.4
2017-Jan-20 04:33N 38°16' E 015°42'1817.8
2017-Jan-20 03:33N 37°60' E 015°32'2019.9
2017-Jan-20 02:33N 37°42' E 015°21'91 7.0
2017-Jan-19 13:32N 36°14' E 014°50'2019.9
2017-Jan-19 12:33N 35°58' E 014°36'7 2.9
2017-Jan-19 10:16N 35°53' E 014°31'0 0.0
2017-Jan-19 09:31N 35°53' E 014°31'0 0.0
2017-Jan-19 08:31N 35°53' E 014°31'0 0.0
2017-Jan-19 07:28N 35°53' E 014°31'0 0.0
2017-Jan-19 06:31N 35°53' E 014°31'0 0.0
2017-Jan-19 05:31N 35°53' E 014°31'0 0.0
2017-Jan-19 04:25N 35°53' E 014°31'3 3.2
2017-Jan-19 03:33N 35°55' E 014°33'2019.9
2017-Jan-19 02:33N 36°11' E 014°47'87 6.6
2017-Jan-18 13:20N 37°34' E 015°16'1518.8
2017-Jan-18 12:32N 37°48' E 015°24'1919.3
2017-Jan-18 11:33N 38°06' E 015°33'1414.5
2017-Jan-18 10:33N 38°19' E 015°40'1818.3
2017-Jan-18 09:33N 38°37' E 015°33'1918.9
2017-Jan-18 08:32N 38°52' E 015°19'33618.7
2017-Jan-17 14:33N 43°03' E 010°23'1919.5
2017-Jan-17 13:33N 43°21' E 010°15'1313.1
2017-Jan-17 12:33N 43°34' E 010°18'1 1.0
2017-Jan-17 11:30N 43°35' E 010°19'0 0.0
2017-Jan-17 10:29N 43°35' E 010°19'0 0.0
2017-Jan-17 09:33N 43°35' E 010°19'0 0.0
2017-Jan-17 08:33N 43°35' E 010°19'0 0.0
2017-Jan-17 07:33N 43°35' E 010°19'0 0.0
2017-Jan-17 06:32N 43°35' E 010°19'0 0.0
2017-Jan-17 05:32N 43°35' E 010°19'4 3.7
2017-Jan-17 04:33N 43°32' E 010°16'1110.8
2017-Jan-17 03:34N 43°30' E 010°01'1615.7
2017-Jan-17 02:34N 43°40' E 009°45'1616.4
2017-Jan-17 01:33N 43°53' E 009°30'1616.2
2017-Jan-17 00:33N 44°05' E 009°15'1615.9
2017-Jan-16 23:34N 44°17' E 009°01'9 8.8
2017-Jan-16 22:32N 44°24' E 008°53'0 0.0
2017-Jan-16 21:31N 44°24' E 008°53'0 0.0
2017-Jan-16 20:31N 44°24' E 008°53'0 0.0
2017-Jan-16 19:32N 44°24' E 008°53'0 0.0
2017-Jan-16 18:31N 44°24' E 008°53'0 0.0
2017-Jan-16 17:32N 44°24' E 008°53'0 0.0
2017-Jan-16 16:31N 44°24' E 008°53'0 0.0
2017-Jan-16 15:31N 44°24' E 008°53'0 0.0
2017-Jan-16 14:22N 44°24' E 008°53'0 0.0
2017-Jan-16 13:25N 44°24' E 008°53'0 0.0
2017-Jan-16 12:31N 44°24' E 008°53'0 0.0
2017-Jan-16 11:31N 44°24' E 008°53'0 0.0
2017-Jan-16 10:31N 44°24' E 008°53'0 0.0
2017-Jan-16 09:31N 44°24' E 008°53'0 0.0
2017-Jan-16 08:31N 44°24' E 008°53'0 0.0
2017-Jan-16 07:31N 44°24' E 008°53'2 2.2
2017-Jan-16 06:33N 44°24' E 008°56'9 9.3
2017-Jan-16 05:33N 44°16' E 009°04'1010.0
2017-Jan-16 04:33N 44°08' E 009°13'1110.6
2017-Jan-16 03:33N 44°00' E 009°22'1817.7
2017-Jan-16 02:33N 43°47' E 009°38'1818.5
2017-Jan-16 01:33N 43°33' E 009°55'1817.9
2017-Jan-16 00:34N 43°19' E 010°10'3917.9
2017-Jan-15 22:22N 42°45' E 010°37'31018.4
2017-Jan-15 05:33N 38°58' E 015°17'1818.6
2017-Jan-15 04:33N 38°42' E 015°28'1918.9
2017-Jan-15 03:33N 38°25' E 015°39'1615.6
2017-Jan-15 02:33N 38°10' E 015°37'1818.4
2017-Jan-15 01:33N 37°53' E 015°27'  

Dump ship's entire track history